馬祖南竿航空站 - ATIS

METAR RCFG 130800Z 16008KT CAVOK 30/26 Q1011 NOSIG RMK 14005KT/R03 MAX WND 12KT/R21 14012KT/NJL A2986(S)=

站台狀態:Offline
最後更新:2020-08-13 16:30:02